Time;durP1;ratioP1;P1;durP2;ratioP2;P2;SDS_P1;SDS_P2;PMS_P1;PMS_P2;Temp;Humidity;BMP_temperature;BMP_pressure;BME280_temperature;BME280_humidity;BME280_pressure;Samples;Min_cycle;Max_cycle;Signal;HPM_P1;HPM_P2
2022/06/07 00:01:17;;;;;;;3.87;1.40;;;;;;;20.19;68.04;152728.72;1746959;81;20993;-62
2022/06/07 00:03:44;;;;;;;4.37;1.52;;;;;;;20.19;67.63;152728.72;1746577;82;21092;-62
2022/06/07 00:06:11;;;;;;;1.85;1.55;;;;;;;20.15;65.18;152718.28;1746578;82;21473;-62
2022/06/07 00:08:38;;;;;;;1.65;1.37;;;;;;;20.11;64.05;152707.83;1746540;82;20990;-62
2022/06/07 00:11:05;;;;;;;2.42;1.47;;;;;;;20.17;63.30;152723.50;1746487;82;21008;-62
2022/06/07 00:13:34;;;;;;;2.15;1.60;;;;;;;20.26;62.34;152747.03;1746535;82;20990;-63
2022/06/07 00:16:02;;;;;;;2.20;1.35;;;;;;;20.26;61.40;152747.03;1746617;81;20988;-58
2022/06/07 00:18:29;;;;;;;1.92;1.20;;;;;;;20.30;60.45;152757.47;1746559;82;21234;-58
2022/06/07 00:20:56;;;;;;;3.45;1.47;;;;;;;20.33;59.46;152765.30;1746531;82;21171;-58
2022/06/07 00:23:23;;;;;;;1.85;1.25;;;;;;;20.33;58.36;152765.30;1747445;82;21041;-57
2022/06/07 00:25:51;;;;;;;1.87;1.30;;;;;;;20.40;57.73;152782.30;1747646;82;20970;-58
2022/06/07 00:28:18;;;;;;;1.47;1.20;;;;;;;20.43;56.73;152788.80;1732948;82;21015;-57
2022/06/07 00:30:47;;;;;;;2.42;1.72;;;;;;;20.41;56.48;152783.58;1786170;80;21528;-57
2022/06/07 00:33:14;;;;;;;1.55;1.40;;;;;;;20.47;56.30;152799.28;1788427;80;21426;-63
2022/06/07 00:35:41;;;;;;;4.35;1.85;;;;;;;20.51;55.70;152808.41;1788168;80;21044;-63
2022/06/07 00:38:09;;;;;;;1.40;1.30;;;;;;;20.54;55.63;152817.56;1788100;79;21083;-62
2022/06/07 00:40:36;;;;;;;1.67;1.40;;;;;;;20.63;54.98;152838.44;1788308;80;21011;-63
2022/06/07 00:43:05;;;;;;;3.80;1.30;;;;;;;20.56;55.06;152822.78;1787955;80;21204;-62
2022/06/07 00:45:34;;;;;;;3.00;1.37;;;;;;;20.44;55.35;152792.73;1788362;79;21068;-62
2022/06/07 00:48:05;;;;;;;4.50;1.47;;;;;;;20.38;55.78;152777.08;1788078;80;21007;-62
2022/06/07 00:50:59;;;;;;;3.42;1.30;;;;;;;20.31;56.01;152760.09;1788501;80;21043;-63
2022/06/07 00:53:32;;;;;;;2.08;1.40;;;;;;;20.22;56.70;152736.55;1788194;79;21417;-63
2022/06/07 00:56:02;;;;;;;2.70;1.42;;;;;;;20.12;56.83;152711.77;1787546;80;21805;-62
2022/06/07 00:58:30;;;;;;;2.33;1.45;;;;;;;20.08;57.06;152700.00;1788441;80;21075;-62
2022/06/07 01:01:00;;;;;;;1.40;1.30;;;;;;;19.99;57.54;152679.08;1788175;79;20940;-62
2022/06/07 01:03:27;;;;;;;7.53;1.50;;;;;;;19.90;57.87;152655.53;1788112;80;21457;-62
2022/06/07 01:10:43;;;;;;;1.72;1.60;;;;;;;19.85;58.08;152642.48;1788035;80;21099;-63
2022/06/07 01:11:15;;;;;;;3.85;2.10;;;;;;;19.75;58.16;152618.95;1787566;80;21032;-62
2022/06/07 01:13:43;;;;;;;1.90;1.50;;;;;;;19.82;58.25;152634.66;1788151;80;20972;-64
2022/06/07 01:16:12;;;;;;;2.62;1.60;;;;;;;19.80;58.24;152629.44;1787677;80;20976;-63
2022/06/07 01:18:42;;;;;;;2.42;1.65;;;;;;;19.71;58.50;152608.52;1787453;79;21011;-62
2022/06/07 01:21:30;;;;;;;2.12;1.32;;;;;;;19.66;58.58;152594.14;1769583;81;21137;-63
2022/06/07 01:23:58;;;;;;;4.80;1.60;;;;;;;19.61;58.54;152582.42;1784379;80;21469;-63
2022/06/07 01:26:27;;;;;;;7.30;1.65;;;;;;;19.52;58.62;152558.91;1783901;80;20922;-63
2022/06/07 01:28:55;;;;;;;2.08;1.60;;;;;;;19.49;58.76;152551.06;1782462;80;21096;-63
2022/06/07 01:31:22;;;;;;;3.08;1.60;;;;;;;19.44;58.81;152540.64;1746414;82;21032;-63
2022/06/07 01:33:49;;;;;;;2.20;1.50;;;;;;;19.42;59.16;152535.42;1746572;82;21245;-62
2022/06/07 01:36:17;;;;;;;4.75;1.60;;;;;;;19.44;59.00;152540.64;1746368;82;21453;-64
2022/06/07 01:41:53;;;;;;;2.92;1.82;;;;;;;19.44;59.09;152540.64;1747585;82;20994;-63
2022/06/07 01:44:01;;;;;;;1.87;1.40;;;;;;;19.57;58.93;152571.98;1747563;81;21494;-63
2022/06/07 01:46:29;;;;;;;2.10;1.60;;;;;;;19.60;58.56;152579.81;1747589;82;21268;-63
2022/06/07 01:48:56;;;;;;;2.35;1.60;;;;;;;19.58;58.46;152574.59;1747566;81;20953;-62
2022/06/07 01:51:23;;;;;;;3.90;1.60;;;;;;;19.59;58.61;152577.20;1747462;81;21450;-64
2022/06/07 01:53:50;;;;;;;3.17;1.65;;;;;;;19.65;58.63;152591.53;1747600;81;21041;-63
2022/06/07 01:56:18;;;;;;;3.10;1.67;;;;;;;19.64;58.71;152588.92;1747500;82;21087;-62
2022/06/07 01:58:47;;;;;;;1.40;1.30;;;;;;;19.64;58.77;152590.25;1747514;81;21845;-64
2022/06/07 02:01:14;;;;;;;5.40;1.50;;;;;;;19.62;58.96;152585.03;1747456;82;21045;-63
2022/06/07 02:03:42;;;;;;;1.92;1.60;;;;;;;19.60;59.28;152579.81;1747449;82;21442;-63
2022/06/07 02:06:12;;;;;;;2.45;1.50;;;;;;;19.61;59.55;152582.42;1747425;81;21477;-64
2022/06/07 02:08:41;;;;;;;6.90;1.77;;;;;;;19.61;59.36;152582.42;1747251;82;21068;-63
2022/06/07 02:11:13;;;;;;;4.30;1.98;;;;;;;19.60;59.47;152579.81;1747414;82;21467;-62
2022/06/07 02:13:42;;;;;;;1.70;1.42;;;;;;;19.67;59.63;152598.08;1747396;82;21013;-64
2022/06/07 02:16:11;;;;;;;6.37;1.75;;;;;;;19.71;59.94;152608.52;1747854;81;21414;-62
2022/06/07 02:18:39;;;;;;;2.50;1.70;;;;;;;19.74;60.59;152616.34;1747614;81;21422;-62
2022/06/07 02:21:19;;;;;;;6.00;1.80;;;;;;;19.82;60.92;152634.66;1747219;81;21445;-64
2022/06/07 02:23:46;;;;;;;2.70;1.60;;;;;;;19.88;61.35;152650.31;1747846;82;21236;-62
2022/06/07 02:26:30;;;;;;;3.92;1.92;;;;;;;19.98;60.86;152676.47;1747489;82;21046;-62
2022/06/07 02:29:11;;;;;;;2.33;1.82;;;;;;;20.10;60.52;152706.50;1747436;82;21041;-62
2022/06/07 02:31:42;;;;;;;2.37;1.70;;;;;;;20.21;59.59;152733.94;1747464;81;21371;-62
2022/06/07 02:34:11;;;;;;;2.37;1.87;;;;;;;20.32;59.46;152762.69;1732836;81;21065;-62
2022/06/07 02:36:39;;;;;;;2.25;2.00;;;;;;;20.46;59.06;152796.67;1733249;82;20906;-63
2022/06/07 02:39:07;;;;;;;2.42;1.62;;;;;;;20.52;58.43;152812.34;1747832;82;21030;-64
2022/06/07 02:41:35;;;;;;;2.67;1.85;;;;;;;20.55;57.73;152820.17;1747493;81;21006;-64
2022/06/07 02:44:02;;;;;;;4.37;2.40;;;;;;;20.64;57.43;152841.06;1747755;82;20926;-64
2022/06/07 02:46:29;;;;;;;4.75;2.20;;;;;;;20.74;57.54;152867.22;1747544;81;20969;-64
2022/06/07 02:48:56;;;;;;;9.03;2.37;;;;;;;20.79;57.62;152880.28;1747496;81;22296;-63
2022/06/07 02:51:23;;;;;;;4.53;2.60;;;;;;;20.87;57.52;152901.22;1747324;81;21025;-64
2022/06/07 02:53:51;;;;;;;3.77;2.72;;;;;;;20.91;56.91;152909.09;1747785;81;20993;-64
2022/06/07 02:56:18;;;;;;;5.37;2.80;;;;;;;20.82;56.74;152888.16;1747306;81;21076;-63
2022/06/07 02:58:46;;;;;;;5.67;2.40;;;;;;;20.75;56.80;152869.83;1747346;81;21020;-64
2022/06/07 03:01:14;;;;;;;3.02;2.00;;;;;;;20.68;56.68;152851.55;1758955;81;21242;-64
2022/06/07 03:03:42;;;;;;;5.70;2.50;;;;;;;20.56;56.35;152822.78;1746435;82;20963;-63
2022/06/07 03:06:11;;;;;;;5.58;2.30;;;;;;;20.46;56.21;152797.95;1746143;82;21612;-64
2022/06/07 03:08:38;;;;;;;6.45;2.33;;;;;;;20.30;56.03;152757.47;1746119;82;20885;-64
2022/06/07 03:11:07;;;;;;;4.80;2.55;;;;;;;20.22;56.06;152736.55;1746095;82;21441;-63
2022/06/07 03:13:36;;;;;;;3.20;2.40;;;;;;;20.09;55.90;152702.61;1746236;82;21200;-64
2022/06/07 03:16:05;;;;;;;4.30;2.30;;;;;;;20.01;55.72;152683.02;1746391;82;20921;-63
2022/06/07 03:18:32;;;;;;;3.67;2.40;;;;;;;19.92;55.90;152660.81;1746409;82;21430;-63
2022/06/07 03:21:01;;;;;;;6.95;2.42;;;;;;;19.89;56.02;152654.27;1746322;82;20948;-64
2022/06/07 03:23:29;;;;;;;3.90;2.30;;;;;;;19.88;56.03;152650.31;1746425;82;21111;-63
2022/06/07 03:26:06;;;;;;;4.80;2.20;;;;;;;19.84;56.29;152641.16;1747017;81;22123;-63
2022/06/07 03:28:35;;;;;;;3.67;2.10;;;;;;;19.92;56.65;152660.81;1747227;81;21006;-63
2022/06/07 03:31:05;;;;;;;4.72;2.25;;;;;;;19.91;56.66;152658.19;1773681;80;21453;-63
2022/06/07 03:33:34;;;;;;;7.12;2.30;;;;;;;19.89;57.30;152654.27;1787770;80;20989;-63
2022/06/07 03:36:12;;;;;;;5.78;2.62;;;;;;;19.90;57.76;152656.87;1788073;80;21071;-64
2022/06/07 03:38:41;;;;;;;4.08;2.10;;;;;;;19.92;57.91;152660.81;1787837;80;21219;-63
2022/06/07 03:41:09;;;;;;;3.80;2.27;;;;;;;19.94;58.27;152664.75;1787791;80;20985;-63
2022/06/07 03:43:38;;;;;;;7.72;3.10;;;;;;;20.05;58.20;152693.45;1787867;80;21045;-63
2022/06/07 03:46:13;;;;;;;11.38;3.42;;;;;;;20.09;58.05;152703.89;1787904;79;20937;-63
2022/06/07 03:48:44;;;;;;;5.72;2.90;;;;;;;20.08;58.27;152701.28;1757041;80;21048;-63
2022/06/07 03:51:12;;;;;;;4.00;2.65;;;;;;;20.17;58.03;152724.81;1787955;80;21189;-64
2022/06/07 03:53:40;;;;;;;4.00;2.50;;;;;;;20.25;57.24;152744.42;1787741;80;20985;-63
2022/06/07 03:56:07;;;;;;;8.13;2.70;;;;;;;20.29;57.11;152754.86;1787918;80;20936;-63
2022/06/07 03:58:38;;;;;;;4.92;2.33;;;;;;;20.41;56.59;152783.58;1787800;79;21482;-64
2022/06/07 04:01:08;;;;;;;5.28;2.05;;;;;;;20.44;56.15;152791.41;1788004;80;21478;-63
2022/06/07 04:03:35;;;;;;;2.47;1.98;;;;;;;20.43;55.64;152790.13;1787834;80;21188;-63
2022/06/07 04:06:02;;;;;;;6.72;2.10;;;;;;;20.30;55.12;152757.47;1787904;80;21001;-63
2022/06/07 04:08:32;;;;;;;5.50;2.10;;;;;;;20.15;55.43;152718.28;1787896;80;21001;-63
2022/06/07 04:11:02;;;;;;;4.20;1.92;;;;;;;20.11;55.10;152707.83;1787918;79;21038;-63
2022/06/07 04:13:38;;;;;;;2.55;2.08;;;;;;;20.16;54.34;152720.88;1787460;80;20921;-64
2022/06/07 04:16:09;;;;;;;4.53;2.35;;;;;;;20.29;54.40;152754.86;1787869;80;21516;-63
2022/06/07 04:18:38;;;;;;;3.20;1.85;;;;;;;20.47;53.78;152799.28;1787653;79;21017;-64
2022/06/07 04:21:05;;;;;;;4.22;1.90;;;;;;;20.56;52.99;152822.78;1788101;80;20975;-63
2022/06/07 04:23:32;;;;;;;4.62;1.90;;;;;;;20.58;52.92;152828.00;1787838;80;21008;-62
2022/06/07 04:26:13;;;;;;;3.85;1.90;;;;;;;20.67;52.91;152848.89;1787852;80;21001;-64
2022/06/07 04:28:41;;;;;;;4.45;2.00;;;;;;;20.73;52.48;152864.61;1757242;80;21136;-64
2022/06/07 04:31:13;;;;;;;4.30;2.12;;;;;;;20.75;52.47;152869.83;1762683;80;21029;-62
2022/06/07 04:33:41;;;;;;;4.58;2.42;;;;;;;20.77;52.48;152875.05;1745995;82;21016;-63
2022/06/07 04:36:18;;;;;;;4.42;1.82;;;;;;;20.81;52.35;152884.27;1746469;82;21052;-63
2022/06/07 04:38:46;;;;;;;2.25;1.87;;;;;;;20.80;52.26;152882.94;1746643;82;21095;-64
2022/06/07 04:41:16;;;;;;;4.65;1.90;;;;;;;20.82;52.68;152888.16;1746453;82;20965;-64
2022/06/07 04:43:46;;;;;;;3.92;1.70;;;;;;;20.89;52.17;152906.48;1746445;82;21013;-63
2022/06/07 04:46:16;;;;;;;2.17;1.60;;;;;;;20.98;52.03;152927.38;1734061;82;20968;-64
2022/06/07 04:48:45;;;;;;;6.85;2.10;;;;;;;21.07;52.41;152949.59;1746503;80;21025;-64
2022/06/07 04:51:20;;;;;;;4.28;1.70;;;;;;;21.15;52.53;152970.48;1746512;81;21558;-63
2022/06/07 04:53:49;;;;;;;3.65;1.80;;;;;;;21.22;52.18;152988.81;1746829;81;21247;-64
2022/06/07 04:56:20;;;;;;;3.00;1.92;;;;;;;21.23;51.16;152990.09;1747466;82;21040;-63
2022/06/07 04:58:47;;;;;;;4.67;2.12;;;;;;;21.26;51.25;152997.94;1747551;82;21049;-63
2022/06/07 05:01:18;;;;;;;5.30;1.98;;;;;;;21.35;50.85;153020.16;1747609;82;20994;-64
2022/06/07 05:03:46;;;;;;;2.72;1.62;;;;;;;21.32;50.69;153014.94;1747349;80;20980;-63
2022/06/07 05:06:29;;;;;;;3.22;1.80;;;;;;;21.31;50.91;153012.33;1747484;82;21242;-63
2022/06/07 05:09:02;;;;;;;4.80;2.12;;;;;;;21.39;50.98;153030.61;1747036;81;21024;-64
2022/06/07 05:11:31;;;;;;;4.62;1.70;;;;;;;21.41;50.85;153037.16;1747683;80;21019;-64
2022/06/07 05:14:02;;;;;;;3.45;2.30;;;;;;;21.41;50.98;153037.16;1747550;81;21353;-64
2022/06/07 05:16:29;;;;;;;4.60;2.30;;;;;;;21.44;51.07;153045.00;1747494;80;21084;-63
2022/06/07 05:18:56;;;;;;;6.08;2.25;;;;;;;21.43;51.10;153042.39;1747446;82;21238;-64
2022/06/07 05:21:25;;;;;;;8.13;2.60;;;;;;;21.39;51.47;153030.61;1746413;81;21433;-63
2022/06/07 05:23:53;;;;;;;3.60;2.55;;;;;;;21.38;51.72;153028.00;1744653;82;21032;-57
2022/06/07 05:26:26;;;;;;;4.55;2.50;;;;;;;21.41;51.87;153037.16;1744998;82;21056;-58
2022/06/07 05:28:54;;;;;;;6.90;2.70;;;;;;;21.51;51.91;153062.00;1746982;82;21463;-59
2022/06/07 05:31:22;;;;;;;8.45;2.83;;;;;;;21.53;51.84;153065.91;1768839;79;21246;-58
2022/06/07 05:33:50;;;;;;;5.12;2.60;;;;;;;21.59;51.78;153081.63;1787448;80;21417;-58
2022/06/07 05:36:18;;;;;;;10.65;2.90;;;;;;;21.68;51.69;153103.91;1787542;79;21098;-60
2022/06/07 05:38:47;;;;;;;5.55;2.47;;;;;;;21.73;51.87;153118.25;1787566;80;21711;-59
2022/06/07 05:41:22;;;;;;;8.73;3.10;;;;;;;21.69;52.11;153107.80;1787454;79;20996;-58
2022/06/07 05:43:51;;;;;;;9.23;2.85;;;;;;;21.72;52.53;153115.63;1753661;80;21638;-58
2022/06/07 05:46:19;;;;;;;6.03;3.05;;;;;;;21.70;52.76;153110.41;1785032;80;21005;-58
2022/06/07 05:48:52;;;;;;;4.78;2.80;;;;;;;21.69;53.07;153106.52;1785223;80;21367;-58
2022/06/07 05:51:21;;;;;;;6.90;2.58;;;;;;;21.70;53.55;153109.13;1767936;81;21028;-57
2022/06/07 05:53:54;;;;;;;6.92;2.95;;;;;;;21.72;54.07;153115.63;1784250;80;21525;-60
2022/06/07 05:56:22;;;;;;;5.60;3.08;;;;;;;21.79;54.16;153132.64;1785308;80;21188;-57
2022/06/07 05:58:52;;;;;;;8.20;2.98;;;;;;;21.78;54.91;153130.03;1785268;79;20885;-58
2022/06/07 06:01:20;;;;;;;5.42;3.00;;;;;;;21.74;55.65;153120.86;1792574;79;20935;-58
2022/06/07 06:03:49;;;;;;;6.60;3.08;;;;;;;21.73;55.91;153118.25;1798406;79;21566;-57
2022/06/07 06:06:16;;;;;;;5.58;3.08;;;;;;;21.78;56.33;153128.75;1769420;81;21075;-58
2022/06/07 06:11:33;;;;;;;8.45;3.60;;;;;;;21.91;55.95;153162.72;1783534;80;21048;-58
2022/06/07 06:14:14;;;;;;;5.60;4.10;;;;;;;21.89;55.94;153157.48;1785405;80;21114;-57
2022/06/07 06:16:43;;;;;;;7.15;3.75;;;;;;;21.89;56.37;153158.81;1786921;78;21099;-57
2022/06/07 06:19:12;;;;;;;7.87;3.60;;;;;;;21.97;56.76;153178.39;1789404;80;21081;-58
2022/06/07 06:21:43;;;;;;;4.85;3.50;;;;;;;22.00;56.75;153186.28;1779447;78;21136;-57
2022/06/07 06:24:11;;;;;;;8.00;3.90;;;;;;;22.08;56.74;153204.56;1768460;80;21054;-57
2022/06/07 06:26:38;;;;;;;5.62;4.00;;;;;;;22.12;55.74;153216.34;1754546;80;21061;-58
2022/06/07 06:29:08;;;;;;;7.40;4.30;;;;;;;22.11;55.15;153213.73;1767975;80;21378;-64
2022/06/07 06:31:37;;;;;;;7.17;3.83;;;;;;;22.14;55.26;153220.25;1761701;79;21002;-62
2022/06/07 06:34:04;;;;;;;6.87;4.00;;;;;;;22.24;55.50;153245.09;1773859;79;21251;-57
2022/06/07 06:36:31;;;;;;;6.92;4.17;;;;;;;22.40;55.56;153285.62;1778344;78;21431;-57
2022/06/07 06:38:59;;;;;;;6.50;4.42;;;;;;;22.57;55.95;153330.16;1770741;79;21053;-58
2022/06/07 06:41:32;;;;;;;8.38;3.95;;;;;;;22.79;54.87;153385.11;1786526;79;21881;-57
2022/06/07 06:44:01;;;;;;;9.53;3.90;;;;;;;22.93;54.90;153420.42;1770364;79;21148;-58
2022/06/07 06:46:32;;;;;;;6.28;4.10;;;;;;;23.11;54.82;153466.25;1771290;79;21295;-58
2022/06/07 06:49:03;;;;;;;8.00;3.92;;;;;;;23.20;55.00;153487.17;1788909;79;21075;-57
2022/06/07 06:51:31;;;;;;;6.58;3.98;;;;;;;23.23;54.37;153495.02;1780539;79;21053;-58
2022/06/07 06:53:59;;;;;;;6.70;4.08;;;;;;;23.29;53.82;153510.77;1781390;79;21049;-58
2022/06/07 06:56:31;;;;;;;6.78;4.08;;;;;;;23.43;53.53;153547.42;1791985;79;21066;-58
2022/06/07 06:59:00;;;;;;;5.67;4.00;;;;;;;23.54;53.23;153574.91;1798654;79;21248;-57
2022/06/07 07:01:31;;;;;;;4.85;3.80;;;;;;;23.57;53.14;153582.75;1796985;79;21060;-58
2022/06/07 07:04:01;;;;;;;6.45;4.05;;;;;;;23.59;53.91;153586.70;1761292;79;21331;-64
2022/06/07 07:06:28;;;;;;;7.25;3.72;;;;;;;23.59;54.40;153587.98;1756600;80;21013;-64
2022/06/07 07:08:56;;;;;;;9.03;4.50;;;;;;;23.62;53.80;153594.55;1793436;79;21070;-58
2022/06/07 07:11:31;;;;;;;7.08;3.90;;;;;;;23.61;53.68;153591.94;1764672;79;21381;-58
2022/06/07 07:14:00;;;;;;;8.73;3.98;;;;;;;23.66;52.95;153603.73;1764943;79;21015;-57
2022/06/07 07:16:32;;;;;;;8.53;4.25;;;;;;;23.67;52.48;153607.62;1784887;78;21452;-58
2022/06/07 07:19:03;;;;;;;7.03;4.55;;;;;;;23.67;52.59;153607.62;1804154;78;20964;-64
2022/06/07 07:21:34;;;;;;;8.98;4.15;;;;;;;23.70;53.23;153615.47;1829279;78;20977;-65
2022/06/07 07:24:03;;;;;;;6.97;4.03;;;;;;;23.80;53.58;153639.06;1797164;78;21207;-64
2022/06/07 07:26:31;;;;;;;4.85;3.55;;;;;;;23.86;53.53;153654.75;1828965;78;21011;-64
2022/06/07 07:28:58;;;;;;;8.55;4.40;;;;;;;23.91;54.04;153666.56;1829524;78;21020;-64
2022/06/07 07:31:30;;;;;;;8.80;4.90;;;;;;;23.93;53.61;153673.08;1809412;78;20992;-59
2022/06/07 07:33:59;;;;;;;7.28;4.00;;;;;;;23.94;52.78;153674.41;1779494;80;21513;-64
2022/06/07 07:36:26;;;;;;;9.70;4.20;;;;;;;23.98;52.30;153686.16;1759842;81;21206;-64
2022/06/07 07:38:54;;;;;;;10.35;4.20;;;;;;;24.08;52.37;153709.80;1741470;81;21352;-65
2022/06/07 07:41:28;;;;;;;9.70;4.33;;;;;;;24.15;52.28;153729.44;1738458;82;21079;-58
2022/06/07 07:43:57;;;;;;;7.85;4.17;;;;;;;24.15;52.10;153728.11;1740406;81;20971;-58
2022/06/07 07:46:28;;;;;;;7.67;4.00;;;;;;;24.14;53.25;153725.50;1740550;80;21129;-59
2022/06/07 07:48:55;;;;;;;6.20;4.30;;;;;;;24.25;53.99;153754.33;1756046;81;21178;-58
2022/06/07 07:51:25;;;;;;;8.53;4.00;;;;;;;24.40;53.43;153792.28;1745980;80;20988;-59
2022/06/07 07:53:54;;;;;;;7.83;4.08;;;;;;;24.52;53.50;153821.08;1755086;80;21016;-59
2022/06/07 07:56:21;;;;;;;7.87;4.15;;;;;;;24.50;53.16;153817.17;1765932;79;21052;-59
2022/06/07 07:58:50;;;;;;;8.88;4.03;;;;;;;24.50;53.64;153815.84;1767421;79;21058;-59
2022/06/07 08:01:24;;;;;;;8.85;3.90;;;;;;;24.55;52.75;153828.97;1778716;79;21587;-59
2022/06/07 08:03:52;;;;;;;9.43;4.10;;;;;;;24.61;52.92;153844.67;1730573;82;20933;-58
2022/06/07 08:06:22;;;;;;;6.12;4.28;;;;;;;24.71;52.41;153869.56;1721006;82;21371;-58
2022/06/07 08:08:52;;;;;;;7.75;4.00;;;;;;;24.77;52.41;153885.31;1736372;82;21254;-60
2022/06/07 08:11:21;;;;;;;7.72;3.90;;;;;;;24.81;51.75;153895.78;1741889;81;20891;-59
2022/06/07 08:13:48;;;;;;;7.95;4.08;;;;;;;24.78;51.29;153887.94;1740645;81;21153;-59
2022/06/07 08:16:16;;;;;;;9.45;4.22;;;;;;;24.75;51.60;153880.09;1738157;81;21077;-58
2022/06/07 08:18:45;;;;;;;7.80;4.10;;;;;;;24.78;51.09;153887.94;1740845;81;20997;-59
2022/06/07 08:21:20;;;;;;;15.05;4.60;;;;;;;24.82;50.96;153898.41;1737200;81;21684;-58
2022/06/07 08:23:49;;;;;;;8.63;4.03;;;;;;;24.88;51.16;153912.83;1745292;80;21002;-58
2022/06/07 08:26:18;;;;;;;8.58;4.50;;;;;;;24.89;51.29;153916.78;1737002;82;21025;-57
2022/06/07 08:28:45;;;;;;;12.45;4.28;;;;;;;24.95;51.30;153929.86;1737863;82;21080;-58
2022/06/07 08:31:15;;;;;;;11.48;4.50;;;;;;;24.98;50.92;153937.72;1740120;81;20954;-58
2022/06/07 08:39:14;;;;;;;9.50;4.67;;;;;;;25.32;51.69;154024.20;1740703;81;21061;-57
2022/06/07 08:41:58;;;;;;;10.20;4.00;;;;;;;25.43;49.81;154053.00;1769238;80;21029;-58
2022/06/07 08:44:37;;;;;;;6.95;4.03;;;;;;;25.30;49.63;154018.92;1770091;80;21083;-58
2022/06/07 08:47:09;;;;;;;9.33;3.85;;;;;;;25.14;49.88;153978.31;1738137;81;21042;-59
2022/06/07 08:49:37;;;;;;;7.60;4.05;;;;;;;25.08;49.75;153962.61;1738983;80;21073;-59
2022/06/07 08:52:24;;;;;;;7.10;4.10;;;;;;;25.00;49.22;153942.95;1775308;79;21127;-58
2022/06/07 08:54:51;;;;;;;7.80;4.12;;;;;;;24.96;49.36;153932.48;1771461;79;20991;-58
2022/06/07 08:57:31;;;;;;;9.15;3.95;;;;;;;24.96;50.12;153933.77;1765848;80;21341;-59
2022/06/07 09:00:17;;;;;;;8.18;4.05;;;;;;;25.02;50.27;153948.19;1777574;79;20972;-58
2022/06/07 09:03:06;;;;;;;10.65;4.30;;;;;;;25.02;50.78;153948.19;1781057;79;21076;-58
2022/06/07 09:05:33;;;;;;;5.65;4.25;;;;;;;25.12;50.87;153974.41;1713526;82;21710;-58
2022/06/07 09:08:02;;;;;;;7.55;4.12;;;;;;;25.13;50.75;153977.03;1761679;79;21033;-58
2022/06/07 09:13:21;;;;;;;7.58;3.90;;;;;;;25.12;51.39;153973.08;1773319;79;21059;-59
2022/06/07 09:15:54;;;;;;;11.63;3.98;;;;;;;25.11;51.97;153970.47;1731901;82;21061;-58
2022/06/07 09:18:26;;;;;;;9.48;4.42;;;;;;;25.18;51.30;153988.78;1736687;81;20990;-59
2022/06/07 09:20:57;;;;;;;6.90;4.00;;;;;;;25.22;50.62;153999.31;1752854;81;20942;-58
2022/06/07 09:23:32;;;;;;;5.17;3.35;;;;;;;25.30;49.89;154018.92;1716260;82;20990;-59
2022/06/07 09:26:16;;;;;;;13.00;4.28;;;;;;;25.46;49.12;154059.58;1735256;82;21442;-59
2022/06/07 09:28:45;;;;;;;10.47;4.43;;;;;;;25.60;48.82;154095.00;1757741;80;21079;-58
2022/06/07 09:31:17;;;;;;;5.97;3.85;;;;;;;25.67;48.29;154113.33;1733389;81;21208;-59
2022/06/07 09:33:55;;;;;;;8.43;3.75;;;;;;;25.77;48.00;154136.95;1786868;80;20980;-59
2022/06/07 09:36:31;;;;;;;11.20;4.30;;;;;;;25.89;47.89;154169.70;1789172;80;21324;-58
2022/06/07 09:39:04;;;;;;;13.90;4.30;;;;;;;25.99;47.27;154194.61;1790149;80;21075;-58
2022/06/07 09:41:38;;;;;;;7.25;4.15;;;;;;;26.05;47.58;154209.00;1765852;80;21001;-58
2022/06/07 09:44:38;;;;;;;11.35;3.90;;;;;;;26.12;46.94;154227.38;1789838;80;21145;-58
2022/06/07 09:47:18;;;;;;;6.87;4.03;;;;;;;26.29;46.77;154270.67;1790789;78;21013;-57
2022/06/07 09:49:51;;;;;;;7.35;4.20;;;;;;;26.41;45.93;154299.48;1790151;80;21032;-58
2022/06/07 09:52:33;;;;;;;8.28;4.17;;;;;;;26.52;45.79;154328.36;1769375;80;21025;-58
2022/06/07 09:55:44;;;;;;;7.00;3.90;;;;;;;26.54;45.12;154333.59;1737158;81;21433;-59
2022/06/07 09:58:49;;;;;;;8.68;3.83;;;;;;;26.62;45.34;154351.94;1771353;80;21292;-58
2022/06/07 10:01:30;;;;;;;7.35;3.95;;;;;;;26.71;44.48;154376.86;1791278;78;20948;-58
2022/06/07 10:04:29;;;;;;;5.28;3.83;;;;;;;26.78;42.37;154393.91;1777803;80;21562;-58
2022/06/07 10:07:02;;;;;;;7.78;4.00;;;;;;;26.77;42.72;154391.28;1681711;81;20928;-59
2022/06/07 10:09:47;;;;;;;8.75;3.80;;;;;;;26.77;42.12;154391.28;1784966;80;21126;-57
2022/06/07 10:12:20;;;;;;;;;;;;;;;26.82;42.01;154403.11;1789421;79;21241;-58
2022/06/07 10:15:19;;;;;;;7.42;3.90;;;;;;;26.84;42.08;154409.64;1784713;78;20199;-58
2022/06/07 10:18:29;;;;;;;6.42;3.40;;;;;;;26.87;41.99;154417.59;1790595;78;21433;-58
2022/06/07 10:21:23;;;;;;;9.85;3.77;;;;;;;26.86;41.16;154414.97;1750063;80;21512;-58
2022/06/07 10:24:10;;;;;;;11.97;4.85;;;;;;;26.84;40.68;154409.64;1776094;80;21118;-58
2022/06/07 10:27:06;;;;;;;6.80;3.40;;;;;;;26.80;39.36;154397.88;1768831;81;21394;-58
2022/06/07 10:29:42;;;;;;;7.97;3.52;;;;;;;26.78;39.43;154393.91;1769458;81;21106;-59
2022/06/07 10:32:23;;;;;;;6.90;3.77;;;;;;;26.78;39.60;154393.91;1785282;80;21051;-58
2022/06/07 10:34:55;;;;;;;7.25;3.50;;;;;;;26.83;39.35;154407.02;1753441;80;21086;-58
2022/06/07 10:37:46;;;;;;;7.05;3.72;;;;;;;26.94;39.61;154433.31;1758463;80;21119;-58
2022/06/07 10:40:35;;;;;;;7.33;3.83;;;;;;;26.98;38.98;154443.80;1718536;83;21561;-59
2022/06/07 10:43:23;;;;;;;5.60;3.35;;;;;;;26.98;38.06;154445.14;1747371;81;20941;-58
2022/06/07 10:45:53;;;;;;;9.88;3.80;;;;;;;26.98;37.08;154445.14;1757189;80;21005;-58
2022/06/07 10:48:35;;;;;;;10.00;3.75;;;;;;;27.02;37.13;154454.28;1757345;81;20905;-58
2022/06/07 10:54:05;;;;;;;7.03;3.72;;;;;;;27.14;37.53;154485.78;1755849;81;21271;-58
2022/06/07 10:56:36;;;;;;;6.60;3.42;;;;;;;27.22;36.94;154505.47;1756070;80;21080;-59
2022/06/07 10:59:11;;;;;;;7.33;3.20;;;;;;;27.30;36.53;154525.09;1753163;81;21068;-58
2022/06/07 11:02:00;;;;;;;;;;;;;;;27.41;35.84;154553.97;1732060;81;21029;-59
2022/06/07 11:10:36;;;;;;;8.05;3.50;;;;;;;27.48;34.84;154571.03;1760231;78;21041;-58
2022/06/07 11:13:32;;;;;;;4.50;3.40;;;;;;;27.46;34.61;154567.08;1750454;79;21044;-58
2022/06/07 11:16:13;;;;;;;5.85;3.47;;;;;;;27.53;34.72;154582.91;1715914;82;21044;-58
2022/06/07 11:18:41;;;;;;;5.65;3.30;;;;;;;27.57;34.68;154593.39;1763892;81;21008;-58
2022/06/07 11:21:31;;;;;;;8.33;3.62;;;;;;;27.63;34.50;154609.13;1760243;79;21019;-59
2022/06/07 11:24:09;;;;;;;6.53;4.03;;;;;;;27.69;34.10;154624.86;1780445;79;20980;-57
2022/06/07 11:26:40;;;;;;;8.90;4.20;;;;;;;27.77;33.85;154644.55;1735422;82;21055;-58
2022/06/07 11:29:08;;;;;;;5.60;3.42;;;;;;;27.78;33.28;154647.16;1765052;79;21052;-59
2022/06/07 11:31:41;;;;;;;7.08;3.70;;;;;;;27.70;32.88;154627.47;1738580;80;20981;-59
2022/06/07 11:34:34;;;;;;;5.70;3.70;;;;;;;27.64;32.65;154611.75;1749920;80;21743;-58
2022/06/07 11:37:22;;;;;;;6.20;3.80;;;;;;;27.64;32.88;154611.75;1768195;78;21003;-57
2022/06/07 11:39:56;;;;;;;9.73;5.37;;;;;;;27.63;33.24;154609.13;1753895;80;22009;-58
2022/06/07 11:42:34;;;;;;;10.75;5.70;;;;;;;27.65;33.09;154613.08;1756628;81;21051;-57
2022/06/07 11:45:21;;;;;;;11.45;5.22;;;;;;;27.77;32.81;154643.25;1737867;81;21441;-59
2022/06/07 11:48:03;;;;;;;10.95;5.28;;;;;;;27.86;32.30;154666.84;1723118;83;22131;-59
2022/06/07 11:50:45;;;;;;;8.75;5.17;;;;;;;27.88;32.11;154673.44;1722626;83;21041;-58
2022/06/07 11:53:25;;;;;;;9.98;5.08;;;;;;;27.83;32.02;154660.27;1753254;81;21480;-59
2022/06/07 11:56:01;;;;;;;8.25;4.15;;;;;;;27.77;32.07;154644.55;1752930;80;21044;-58
2022/06/07 11:58:52;;;;;;;7.72;3.90;;;;;;;27.79;32.01;154648.50;1784892;79;21039;-57
2022/06/07 12:01:42;;;;;;;8.48;3.70;;;;;;;27.80;32.21;154651.13;1752873;81;21240;-62
2022/06/07 12:04:30;;;;;;;6.30;4.22;;;;;;;27.88;32.69;154673.44;1773630;80;21012;-63
2022/06/07 12:07:01;;;;;;;9.23;4.20;;;;;;;27.98;33.19;154698.36;1784425;80;21071;-63
2022/06/07 12:09:29;;;;;;;9.68;3.95;;;;;;;28.00;33.61;154703.61;1783781;80;21005;-63
2022/06/07 12:11:56;;;;;;;7.28;4.40;;;;;;;28.02;33.28;154708.84;1784298;80;20952;-63
2022/06/07 12:14:37;;;;;;;9.03;4.65;;;;;;;27.96;32.68;154693.06;1770409;79;21267;-63